sensor_id;sensor_type;location;lat;lon;timestamp;P1;durP1;ratioP1;P2;durP2;ratioP2
6185;SDS011;3126;52.738;8.316;2023-06-24T00:01:39;11.70;;;7.70;;
6185;SDS011;3126;52.738;8.316;2023-06-24T00:06:40;9.85;;;7.78;;
6185;SDS011;3126;52.738;8.316;2023-06-24T00:11:41;9.32;;;7.22;;
6185;SDS011;3126;52.738;8.316;2023-06-24T00:16:42;9.40;;;7.78;;
6185;SDS011;3126;52.738;8.316;2023-06-24T00:21:43;10.93;;;7.95;;
6185;SDS011;3126;52.738;8.316;2023-06-24T00:26:45;9.88;;;8.48;;
6185;SDS011;3126;52.738;8.316;2023-06-24T00:31:47;10.38;;;7.68;;
6185;SDS011;3126;52.738;8.316;2023-06-24T00:36:48;9.45;;;7.82;;
6185;SDS011;3126;52.738;8.316;2023-06-24T00:41:49;11.52;;;9.48;;
6185;SDS011;3126;52.738;8.316;2023-06-24T00:46:50;12.45;;;8.35;;
6185;SDS011;3126;52.738;8.316;2023-06-24T00:51:51;10.88;;;7.75;;
6185;SDS011;3126;52.738;8.316;2023-06-24T00:56:52;11.32;;;7.93;;
6185;SDS011;3126;52.738;8.316;2023-06-24T01:01:54;12.05;;;8.68;;
6185;SDS011;3126;52.738;8.316;2023-06-24T01:06:56;11.48;;;8.30;;
6185;SDS011;3126;52.738;8.316;2023-06-24T01:11:57;14.57;;;8.82;;
6185;SDS011;3126;52.738;8.316;2023-06-24T01:17:12;12.93;;;8.77;;
6185;SDS011;3126;52.738;8.316;2023-06-24T01:22:24;11.85;;;8.95;;
6185;SDS011;3126;52.738;8.316;2023-06-24T01:27:36;13.70;;;9.63;;
6185;SDS011;3126;52.738;8.316;2023-06-24T01:32:48;13.07;;;8.65;;
6185;SDS011;3126;52.738;8.316;2023-06-24T01:37:51;12.32;;;8.95;;
6185;SDS011;3126;52.738;8.316;2023-06-24T01:42:52;12.35;;;9.60;;
6185;SDS011;3126;52.738;8.316;2023-06-24T01:47:55;12.20;;;9.07;;
6185;SDS011;3126;52.738;8.316;2023-06-24T01:52:58;13.85;;;10.20;;
6185;SDS011;3126;52.738;8.316;2023-06-24T01:58:01;12.05;;;9.48;;
6185;SDS011;3126;52.738;8.316;2023-06-24T02:03:04;14.50;;;9.80;;
6185;SDS011;3126;52.738;8.316;2023-06-24T02:08:07;10.55;;;8.13;;
6185;SDS011;3126;52.738;8.316;2023-06-24T02:13:09;10.02;;;7.47;;
6185;SDS011;3126;52.738;8.316;2023-06-24T02:18:11;12.60;;;8.57;;
6185;SDS011;3126;52.738;8.316;2023-06-24T02:23:13;12.20;;;9.23;;
6185;SDS011;3126;52.738;8.316;2023-06-24T02:28:14;12.65;;;9.35;;
6185;SDS011;3126;52.738;8.316;2023-06-24T02:33:15;14.35;;;10.30;;
6185;SDS011;3126;52.738;8.316;2023-06-24T02:38:16;13.70;;;9.77;;
6185;SDS011;3126;52.738;8.316;2023-06-24T02:43:17;14.90;;;11.07;;
6185;SDS011;3126;52.738;8.316;2023-06-24T02:48:18;14.65;;;10.85;;
6185;SDS011;3126;52.738;8.316;2023-06-24T02:53:20;16.63;;;10.73;;
6185;SDS011;3126;52.738;8.316;2023-06-24T02:58:21;14.75;;;10.00;;
6185;SDS011;3126;52.738;8.316;2023-06-24T03:03:24;15.13;;;9.88;;
6185;SDS011;3126;52.738;8.316;2023-06-24T03:08:25;11.15;;;8.63;;
6185;SDS011;3126;52.738;8.316;2023-06-24T03:13:26;15.98;;;10.07;;
6185;SDS011;3126;52.738;8.316;2023-06-24T03:18:27;11.25;;;8.77;;
6185;SDS011;3126;52.738;8.316;2023-06-24T03:23:28;12.45;;;9.30;;
6185;SDS011;3126;52.738;8.316;2023-06-24T03:28:30;12.68;;;9.50;;
6185;SDS011;3126;52.738;8.316;2023-06-24T03:33:31;14.45;;;10.18;;
6185;SDS011;3126;52.738;8.316;2023-06-24T03:38:31;16.08;;;10.93;;
6185;SDS011;3126;52.738;8.316;2023-06-24T03:43:32;14.63;;;10.45;;
6185;SDS011;3126;52.738;8.316;2023-06-24T03:48:35;17.55;;;9.25;;
6185;SDS011;3126;52.738;8.316;2023-06-24T03:53:36;16.17;;;9.88;;
6185;SDS011;3126;52.738;8.316;2023-06-24T03:58:37;14.43;;;10.35;;
6185;SDS011;3126;52.738;8.316;2023-06-24T04:03:38;19.17;;;12.68;;
6185;SDS011;3126;52.738;8.316;2023-06-24T04:08:38;17.35;;;12.05;;
6185;SDS011;3126;52.738;8.316;2023-06-24T04:13:39;19.33;;;12.88;;
6185;SDS011;3126;52.738;8.316;2023-06-24T04:18:40;18.25;;;11.38;;
6185;SDS011;3126;52.738;8.316;2023-06-24T04:23:42;20.10;;;13.40;;
6185;SDS011;3126;52.738;8.316;2023-06-24T04:28:42;18.58;;;12.52;;
6185;SDS011;3126;52.738;8.316;2023-06-24T04:33:43;20.10;;;12.32;;
6185;SDS011;3126;52.738;8.316;2023-06-24T04:38:44;21.02;;;14.07;;
6185;SDS011;3126;52.738;8.316;2023-06-24T04:43:45;18.75;;;13.30;;
6185;SDS011;3126;52.738;8.316;2023-06-24T04:48:46;19.10;;;13.15;;
6185;SDS011;3126;52.738;8.316;2023-06-24T04:53:47;22.00;;;14.20;;
6185;SDS011;3126;52.738;8.316;2023-06-24T04:58:48;21.35;;;14.57;;
6185;SDS011;3126;52.738;8.316;2023-06-24T05:03:49;23.45;;;15.20;;
6185;SDS011;3126;52.738;8.316;2023-06-24T05:08:50;22.55;;;15.18;;
6185;SDS011;3126;52.738;8.316;2023-06-24T05:13:51;24.65;;;15.75;;
6185;SDS011;3126;52.738;8.316;2023-06-24T05:18:52;23.25;;;15.60;;
6185;SDS011;3126;52.738;8.316;2023-06-24T05:23:53;23.63;;;15.95;;
6185;SDS011;3126;52.738;8.316;2023-06-24T05:28:54;23.10;;;16.45;;
6185;SDS011;3126;52.738;8.316;2023-06-24T05:33:55;22.40;;;15.50;;
6185;SDS011;3126;52.738;8.316;2023-06-24T05:38:56;20.67;;;14.65;;
6185;SDS011;3126;52.738;8.316;2023-06-24T05:44:03;18.10;;;13.35;;
6185;SDS011;3126;52.738;8.316;2023-06-24T05:49:04;18.10;;;12.75;;
6185;SDS011;3126;52.738;8.316;2023-06-24T05:54:05;22.08;;;13.77;;
6185;SDS011;3126;52.738;8.316;2023-06-24T05:59:07;17.83;;;12.55;;
6185;SDS011;3126;52.738;8.316;2023-06-24T06:04:08;17.75;;;12.57;;
6185;SDS011;3126;52.738;8.316;2023-06-24T06:09:09;16.65;;;11.65;;
6185;SDS011;3126;52.738;8.316;2023-06-24T06:14:09;14.25;;;11.50;;
6185;SDS011;3126;52.738;8.316;2023-06-24T06:19:10;13.95;;;10.88;;
6185;SDS011;3126;52.738;8.316;2023-06-24T06:24:11;12.40;;;9.82;;
6185;SDS011;3126;52.738;8.316;2023-06-24T06:29:12;13.48;;;10.57;;
6185;SDS011;3126;52.738;8.316;2023-06-24T06:34:13;10.77;;;9.50;;
6185;SDS011;3126;52.738;8.316;2023-06-24T06:39:14;10.57;;;8.43;;
6185;SDS011;3126;52.738;8.316;2023-06-24T06:44:14;8.80;;;7.60;;
6185;SDS011;3126;52.738;8.316;2023-06-24T06:49:16;9.35;;;7.90;;
6185;SDS011;3126;52.738;8.316;2023-06-24T06:54:16;10.13;;;7.65;;
6185;SDS011;3126;52.738;8.316;2023-06-24T06:59:17;8.65;;;7.05;;
6185;SDS011;3126;52.738;8.316;2023-06-24T07:04:19;9.88;;;7.70;;
6185;SDS011;3126;52.738;8.316;2023-06-24T07:09:19;9.98;;;7.70;;
6185;SDS011;3126;52.738;8.316;2023-06-24T07:14:20;7.75;;;6.72;;
6185;SDS011;3126;52.738;8.316;2023-06-24T07:19:21;9.23;;;7.15;;
6185;SDS011;3126;52.738;8.316;2023-06-24T07:24:22;12.23;;;7.07;;
6185;SDS011;3126;52.738;8.316;2023-06-24T07:29:23;8.07;;;6.40;;
6185;SDS011;3126;52.738;8.316;2023-06-24T07:34:24;7.43;;;6.32;;
6185;SDS011;3126;52.738;8.316;2023-06-24T07:39:25;8.35;;;6.13;;
6185;SDS011;3126;52.738;8.316;2023-06-24T07:44:26;7.20;;;6.25;;
6185;SDS011;3126;52.738;8.316;2023-06-24T07:49:27;7.30;;;6.47;;
6185;SDS011;3126;52.738;8.316;2023-06-24T07:54:28;10.75;;;6.50;;
6185;SDS011;3126;52.738;8.316;2023-06-24T07:59:29;7.10;;;6.10;;
6185;SDS011;3126;52.738;8.316;2023-06-24T08:04:30;6.88;;;6.18;;
6185;SDS011;3126;52.738;8.316;2023-06-24T08:09:31;7.63;;;6.50;;
6185;SDS011;3126;52.738;8.316;2023-06-24T08:14:32;9.10;;;7.22;;
6185;SDS011;3126;52.738;8.316;2023-06-24T08:19:33;6.43;;;5.82;;
6185;SDS011;3126;52.738;8.316;2023-06-24T08:24:34;7.03;;;5.57;;
6185;SDS011;3126;52.738;8.316;2023-06-24T08:29:35;6.78;;;6.10;;
6185;SDS011;3126;52.738;8.316;2023-06-24T08:34:37;9.50;;;6.13;;
6185;SDS011;3126;52.738;8.316;2023-06-24T08:39:38;7.10;;;6.43;;
6185;SDS011;3126;52.738;8.316;2023-06-24T08:44:40;5.07;;;4.60;;
6185;SDS011;3126;52.738;8.316;2023-06-24T08:49:46;6.88;;;4.57;;
6185;SDS011;3126;52.738;8.316;2023-06-24T08:54:50;5.95;;;4.60;;
6185;SDS011;3126;52.738;8.316;2023-06-24T08:59:52;4.88;;;4.38;;
6185;SDS011;3126;52.738;8.316;2023-06-24T09:04:53;8.23;;;5.05;;
6185;SDS011;3126;52.738;8.316;2023-06-24T09:09:54;5.28;;;4.35;;
6185;SDS011;3126;52.738;8.316;2023-06-24T09:14:56;5.03;;;4.38;;
6185;SDS011;3126;52.738;8.316;2023-06-24T09:20:03;6.88;;;4.43;;
6185;SDS011;3126;52.738;8.316;2023-06-24T09:30:19;5.40;;;4.55;;
6185;SDS011;3126;52.738;8.316;2023-06-24T09:35:21;4.90;;;4.40;;
6185;SDS011;3126;52.738;8.316;2023-06-24T09:40:22;5.53;;;4.55;;
6185;SDS011;3126;52.738;8.316;2023-06-24T09:45:24;6.30;;;5.22;;
6185;SDS011;3126;52.738;8.316;2023-06-24T09:50:25;7.43;;;5.78;;
6185;SDS011;3126;52.738;8.316;2023-06-24T09:55:26;6.57;;;5.82;;
6185;SDS011;3126;52.738;8.316;2023-06-24T10:00:28;8.45;;;5.35;;
6185;SDS011;3126;52.738;8.316;2023-06-24T10:05:29;9.15;;;6.53;;
6185;SDS011;3126;52.738;8.316;2023-06-24T10:10:30;7.03;;;4.65;;
6185;SDS011;3126;52.738;8.316;2023-06-24T10:15:31;7.97;;;5.28;;
6185;SDS011;3126;52.738;8.316;2023-06-24T10:20:36;5.13;;;4.63;;
6185;SDS011;3126;52.738;8.316;2023-06-24T10:25:38;7.95;;;6.05;;
6185;SDS011;3126;52.738;8.316;2023-06-24T10:30:39;9.38;;;5.60;;
6185;SDS011;3126;52.738;8.316;2023-06-24T10:35:41;6.20;;;5.50;;
6185;SDS011;3126;52.738;8.316;2023-06-24T10:40:43;9.10;;;6.32;;
6185;SDS011;3126;52.738;8.316;2023-06-24T10:45:48;8.20;;;5.15;;
6185;SDS011;3126;52.738;8.316;2023-06-24T10:50:50;6.72;;;5.63;;
6185;SDS011;3126;52.738;8.316;2023-06-24T10:55:52;6.78;;;5.82;;
6185;SDS011;3126;52.738;8.316;2023-06-24T11:01:07;8.60;;;5.90;;
6185;SDS011;3126;52.738;8.316;2023-06-24T11:06:10;7.38;;;6.50;;
6185;SDS011;3126;52.738;8.316;2023-06-24T11:11:17;6.75;;;5.80;;
6185;SDS011;3126;52.738;8.316;2023-06-24T11:16:21;7.20;;;5.65;;
6185;SDS011;3126;52.738;8.316;2023-06-24T11:21:27;5.70;;;5.18;;
6185;SDS011;3126;52.738;8.316;2023-06-24T11:26:29;8.15;;;6.00;;
6185;SDS011;3126;52.738;8.316;2023-06-24T11:31:30;6.88;;;5.18;;
6185;SDS011;3126;52.738;8.316;2023-06-24T11:36:33;6.03;;;5.43;;
6185;SDS011;3126;52.738;8.316;2023-06-24T11:41:36;5.60;;;5.10;;
6185;SDS011;3126;52.738;8.316;2023-06-24T11:46:39;7.75;;;5.00;;
6185;SDS011;3126;52.738;8.316;2023-06-24T11:51:50;5.75;;;5.20;;
6185;SDS011;3126;52.738;8.316;2023-06-24T11:56:52;6.22;;;5.03;;
6185;SDS011;3126;52.738;8.316;2023-06-24T12:01:57;5.72;;;5.13;;
6185;SDS011;3126;52.738;8.316;2023-06-24T12:06:59;5.90;;;5.10;;
6185;SDS011;3126;52.738;8.316;2023-06-24T12:12:00;6.28;;;5.68;;
6185;SDS011;3126;52.738;8.316;2023-06-24T12:17:01;7.15;;;5.57;;
6185;SDS011;3126;52.738;8.316;2023-06-24T12:22:02;6.10;;;5.50;;
6185;SDS011;3126;52.738;8.316;2023-06-24T12:27:03;6.97;;;5.60;;
6185;SDS011;3126;52.738;8.316;2023-06-24T12:32:04;7.03;;;6.32;;
6185;SDS011;3126;52.738;8.316;2023-06-24T12:37:05;8.13;;;6.85;;
6185;SDS011;3126;52.738;8.316;2023-06-24T12:42:06;9.10;;;7.05;;
6185;SDS011;3126;52.738;8.316;2023-06-24T12:47:07;8.55;;;7.85;;
6185;SDS011;3126;52.738;8.316;2023-06-24T12:52:08;7.22;;;6.63;;
6185;SDS011;3126;52.738;8.316;2023-06-24T12:57:09;9.35;;;7.22;;
6185;SDS011;3126;52.738;8.316;2023-06-24T13:02:10;7.45;;;6.70;;
6185;SDS011;3126;52.738;8.316;2023-06-24T13:07:11;8.60;;;7.80;;
6185;SDS011;3126;52.738;8.316;2023-06-24T13:12:12;8.38;;;7.00;;
6185;SDS011;3126;52.738;8.316;2023-06-24T13:17:13;9.45;;;8.55;;
6185;SDS011;3126;52.738;8.316;2023-06-24T13:22:14;7.30;;;6.63;;
6185;SDS011;3126;52.738;8.316;2023-06-24T13:27:15;9.45;;;8.65;;
6185;SDS011;3126;52.738;8.316;2023-06-24T13:32:16;8.45;;;7.55;;
6185;SDS011;3126;52.738;8.316;2023-06-24T13:37:17;8.98;;;8.15;;
6185;SDS011;3126;52.738;8.316;2023-06-24T13:42:18;10.48;;;8.55;;
6185;SDS011;3126;52.738;8.316;2023-06-24T13:47:19;8.60;;;7.80;;
6185;SDS011;3126;52.738;8.316;2023-06-24T13:52:20;11.15;;;9.20;;
6185;SDS011;3126;52.738;8.316;2023-06-24T13:57:21;8.88;;;8.07;;
6185;SDS011;3126;52.738;8.316;2023-06-24T14:02:22;7.95;;;7.25;;
6185;SDS011;3126;52.738;8.316;2023-06-24T14:07:23;9.57;;;8.73;;
6185;SDS011;3126;52.738;8.316;2023-06-24T14:12:25;8.93;;;8.07;;
6185;SDS011;3126;52.738;8.316;2023-06-24T14:17:26;9.73;;;8.80;;
6185;SDS011;3126;52.738;8.316;2023-06-24T14:22:27;7.43;;;6.82;;
6185;SDS011;3126;52.738;8.316;2023-06-24T14:27:28;9.73;;;7.97;;
6185;SDS011;3126;52.738;8.316;2023-06-24T14:32:29;8.15;;;7.45;;
6185;SDS011;3126;52.738;8.316;2023-06-24T14:37:30;8.15;;;7.35;;
6185;SDS011;3126;52.738;8.316;2023-06-24T14:42:31;8.82;;;8.02;;
6185;SDS011;3126;52.738;8.316;2023-06-24T14:47:32;8.63;;;7.40;;
6185;SDS011;3126;52.738;8.316;2023-06-24T14:52:33;8.30;;;7.43;;
6185;SDS011;3126;52.738;8.316;2023-06-24T14:57:34;7.72;;;6.93;;
6185;SDS011;3126;52.738;8.316;2023-06-24T15:02:35;7.88;;;7.18;;
6185;SDS011;3126;52.738;8.316;2023-06-24T15:07:36;8.43;;;7.63;;
6185;SDS011;3126;52.738;8.316;2023-06-24T15:12:38;7.50;;;6.80;;
6185;SDS011;3126;52.738;8.316;2023-06-24T15:17:40;9.10;;;8.02;;
6185;SDS011;3126;52.738;8.316;2023-06-24T15:22:44;7.80;;;7.00;;
6185;SDS011;3126;52.738;8.316;2023-06-24T15:27:45;8.40;;;7.60;;
6185;SDS011;3126;52.738;8.316;2023-06-24T15:32:46;8.48;;;7.78;;
6185;SDS011;3126;52.738;8.316;2023-06-24T15:37:47;8.43;;;7.35;;
6185;SDS011;3126;52.738;8.316;2023-06-24T15:42:49;8.45;;;7.65;;
6185;SDS011;3126;52.738;8.316;2023-06-24T15:47:49;8.43;;;7.63;;
6185;SDS011;3126;52.738;8.316;2023-06-24T15:52:50;8.88;;;7.53;;
6185;SDS011;3126;52.738;8.316;2023-06-24T15:57:51;9.40;;;8.60;;
6185;SDS011;3126;52.738;8.316;2023-06-24T16:02:52;8.88;;;7.63;;
6185;SDS011;3126;52.738;8.316;2023-06-24T16:07:53;9.15;;;8.35;;
6185;SDS011;3126;52.738;8.316;2023-06-24T16:12:54;9.63;;;8.70;;
6185;SDS011;3126;52.738;8.316;2023-06-24T16:17:55;9.82;;;8.93;;
6185;SDS011;3126;52.738;8.316;2023-06-24T16:22:56;8.73;;;7.93;;
6185;SDS011;3126;52.738;8.316;2023-06-24T16:27:57;9.45;;;8.50;;
6185;SDS011;3126;52.738;8.316;2023-06-24T16:32:58;11.35;;;10.25;;
6185;SDS011;3126;52.738;8.316;2023-06-24T16:37:59;11.07;;;10.07;;
6185;SDS011;3126;52.738;8.316;2023-06-24T16:43:00;9.73;;;8.85;;
6185;SDS011;3126;52.738;8.316;2023-06-24T16:48:01;9.57;;;8.70;;
6185;SDS011;3126;52.738;8.316;2023-06-24T16:53:03;10.23;;;9.23;;
6185;SDS011;3126;52.738;8.316;2023-06-24T16:58:04;11.50;;;10.50;;
6185;SDS011;3126;52.738;8.316;2023-06-24T17:03:05;12.55;;;11.35;;
6185;SDS011;3126;52.738;8.316;2023-06-24T17:08:06;10.93;;;9.93;;
6185;SDS011;3126;52.738;8.316;2023-06-24T17:13:07;10.90;;;9.90;;
6185;SDS011;3126;52.738;8.316;2023-06-24T17:18:08;10.93;;;9.95;;
6185;SDS011;3126;52.738;8.316;2023-06-24T17:23:09;11.10;;;10.10;;
6185;SDS011;3126;52.738;8.316;2023-06-24T17:28:10;11.30;;;10.15;;
6185;SDS011;3126;52.738;8.316;2023-06-24T17:33:11;10.73;;;9.38;;
6185;SDS011;3126;52.738;8.316;2023-06-24T17:38:12;9.18;;;8.27;;
6185;SDS011;3126;52.738;8.316;2023-06-24T17:43:13;10.10;;;9.15;;
6185;SDS011;3126;52.738;8.316;2023-06-24T17:48:14;8.63;;;7.88;;
6185;SDS011;3126;52.738;8.316;2023-06-24T17:53:15;8.73;;;7.90;;
6185;SDS011;3126;52.738;8.316;2023-06-24T17:58:16;8.90;;;7.93;;
6185;SDS011;3126;52.738;8.316;2023-06-24T18:03:17;9.07;;;8.25;;
6185;SDS011;3126;52.738;8.316;2023-06-24T18:08:18;7.78;;;6.97;;
6185;SDS011;3126;52.738;8.316;2023-06-24T18:13:20;8.23;;;7.43;;
6185;SDS011;3126;52.738;8.316;2023-06-24T18:18:21;8.57;;;7.68;;
6185;SDS011;3126;52.738;8.316;2023-06-24T18:23:22;9.23;;;8.32;;
6185;SDS011;3126;52.738;8.316;2023-06-24T18:28:23;9.13;;;8.27;;
6185;SDS011;3126;52.738;8.316;2023-06-24T18:33:24;9.45;;;8.55;;
6185;SDS011;3126;52.738;8.316;2023-06-24T18:38:25;9.55;;;8.75;;
6185;SDS011;3126;52.738;8.316;2023-06-24T18:43:26;11.07;;;9.07;;
6185;SDS011;3126;52.738;8.316;2023-06-24T18:48:29;9.90;;;8.90;;
6185;SDS011;3126;52.738;8.316;2023-06-24T18:53:31;8.85;;;7.97;;
6185;SDS011;3126;52.738;8.316;2023-06-24T18:58:32;9.02;;;8.13;;
6185;SDS011;3126;52.738;8.316;2023-06-24T19:03:33;9.25;;;8.30;;
6185;SDS011;3126;52.738;8.316;2023-06-24T19:08:34;8.32;;;7.45;;
6185;SDS011;3126;52.738;8.316;2023-06-24T19:13:34;9.45;;;8.18;;
6185;SDS011;3126;52.738;8.316;2023-06-24T19:18:35;8.95;;;8.05;;
6185;SDS011;3126;52.738;8.316;2023-06-24T19:23:36;8.85;;;8.05;;
6185;SDS011;3126;52.738;8.316;2023-06-24T19:28:37;9.05;;;8.02;;
6185;SDS011;3126;52.738;8.316;2023-06-24T19:33:38;11.05;;;9.95;;
6185;SDS011;3126;52.738;8.316;2023-06-24T19:38:39;11.93;;;9.65;;
6185;SDS011;3126;52.738;8.316;2023-06-24T19:43:45;11.15;;;9.10;;
6185;SDS011;3126;52.738;8.316;2023-06-24T19:48:47;12.93;;;10.35;;
6185;SDS011;3126;52.738;8.316;2023-06-24T19:53:48;11.32;;;10.10;;
6185;SDS011;3126;52.738;8.316;2023-06-24T19:58:49;10.73;;;9.63;;
6185;SDS011;3126;52.738;8.316;2023-06-24T20:03:50;11.88;;;9.48;;
6185;SDS011;3126;52.738;8.316;2023-06-24T20:08:51;10.45;;;8.23;;
6185;SDS011;3126;52.738;8.316;2023-06-24T20:13:52;10.20;;;9.10;;
6185;SDS011;3126;52.738;8.316;2023-06-24T20:18:52;11.13;;;8.13;;
6185;SDS011;3126;52.738;8.316;2023-06-24T20:23:53;10.68;;;8.70;;
6185;SDS011;3126;52.738;8.316;2023-06-24T20:28:54;10.07;;;8.05;;
6185;SDS011;3126;52.738;8.316;2023-06-24T20:33:55;11.35;;;9.40;;
6185;SDS011;3126;52.738;8.316;2023-06-24T20:38:56;12.95;;;10.20;;
6185;SDS011;3126;52.738;8.316;2023-06-24T20:43:58;11.50;;;9.38;;
6185;SDS011;3126;52.738;8.316;2023-06-24T20:48:59;18.67;;;10.50;;
6185;SDS011;3126;52.738;8.316;2023-06-24T20:54:00;14.48;;;10.18;;
6185;SDS011;3126;52.738;8.316;2023-06-24T20:59:01;14.13;;;10.35;;
6185;SDS011;3126;52.738;8.316;2023-06-24T21:04:02;11.60;;;9.98;;
6185;SDS011;3126;52.738;8.316;2023-06-24T21:09:03;14.25;;;10.63;;
6185;SDS011;3126;52.738;8.316;2023-06-24T21:14:04;14.10;;;11.18;;
6185;SDS011;3126;52.738;8.316;2023-06-24T21:19:05;15.32;;;11.13;;
6185;SDS011;3126;52.738;8.316;2023-06-24T21:24:06;14.07;;;10.82;;
6185;SDS011;3126;52.738;8.316;2023-06-24T21:29:07;16.95;;;11.32;;
6185;SDS011;3126;52.738;8.316;2023-06-24T21:34:08;15.15;;;13.13;;
6185;SDS011;3126;52.738;8.316;2023-06-24T21:39:09;17.52;;;11.65;;
6185;SDS011;3126;52.738;8.316;2023-06-24T21:44:10;15.02;;;10.65;;
6185;SDS011;3126;52.738;8.316;2023-06-24T21:49:11;18.40;;;12.35;;
6185;SDS011;3126;52.738;8.316;2023-06-24T21:54:12;13.02;;;10.73;;
6185;SDS011;3126;52.738;8.316;2023-06-24T21:59:13;15.88;;;11.77;;
6185;SDS011;3126;52.738;8.316;2023-06-24T22:04:14;15.65;;;12.18;;
6185;SDS011;3126;52.738;8.316;2023-06-24T22:09:15;17.23;;;12.20;;
6185;SDS011;3126;52.738;8.316;2023-06-24T22:14:17;16.52;;;12.52;;
6185;SDS011;3126;52.738;8.316;2023-06-24T22:19:18;17.23;;;12.40;;
6185;SDS011;3126;52.738;8.316;2023-06-24T22:24:19;17.88;;;12.63;;
6185;SDS011;3126;52.738;8.316;2023-06-24T22:29:20;19.30;;;13.88;;
6185;SDS011;3126;52.738;8.316;2023-06-24T22:34:21;17.90;;;11.90;;
6185;SDS011;3126;52.738;8.316;2023-06-24T22:39:22;17.10;;;12.85;;
6185;SDS011;3126;52.738;8.316;2023-06-24T22:44:23;16.73;;;11.80;;
6185;SDS011;3126;52.738;8.316;2023-06-24T22:49:24;17.00;;;12.77;;
6185;SDS011;3126;52.738;8.316;2023-06-24T22:54:25;18.67;;;12.75;;
6185;SDS011;3126;52.738;8.316;2023-06-24T22:59:25;18.05;;;13.35;;
6185;SDS011;3126;52.738;8.316;2023-06-24T23:04:26;16.73;;;12.80;;
6185;SDS011;3126;52.738;8.316;2023-06-24T23:09:27;17.80;;;12.15;;
6185;SDS011;3126;52.738;8.316;2023-06-24T23:14:29;19.20;;;13.82;;
6185;SDS011;3126;52.738;8.316;2023-06-24T23:19:32;17.40;;;12.30;;
6185;SDS011;3126;52.738;8.316;2023-06-24T23:24:33;16.90;;;12.55;;
6185;SDS011;3126;52.738;8.316;2023-06-24T23:29:35;17.80;;;12.00;;
6185;SDS011;3126;52.738;8.316;2023-06-24T23:34:37;19.58;;;12.52;;
6185;SDS011;3126;52.738;8.316;2023-06-24T23:39:39;17.20;;;11.90;;
6185;SDS011;3126;52.738;8.316;2023-06-24T23:44:40;17.80;;;11.80;;
6185;SDS011;3126;52.738;8.316;2023-06-24T23:49:41;20.40;;;13.48;;
6185;SDS011;3126;52.738;8.316;2023-06-24T23:54:41;16.55;;;11.90;;
6185;SDS011;3126;52.738;8.316;2023-06-24T23:59:42;18.42;;;12.40;;
